sensor_id;sensor_type;location;lat;lon;timestamp;temperature;humidity
37274;DHT22;23161;51.250;5.554;2022-11-13T00:01:20;6.40;99.90
37274;DHT22;23161;51.250;5.554;2022-11-13T00:04:05;6.40;99.90
37274;DHT22;23161;51.250;5.554;2022-11-13T00:06:49;6.40;99.90
37274;DHT22;23161;51.250;5.554;2022-11-13T00:09:34;6.30;99.90
37274;DHT22;23161;51.250;5.554;2022-11-13T00:12:18;6.30;99.90
37274;DHT22;23161;51.250;5.554;2022-11-13T00:15:03;6.30;99.90
37274;DHT22;23161;51.250;5.554;2022-11-13T00:17:48;6.30;99.90
37274;DHT22;23161;51.250;5.554;2022-11-13T00:20:34;6.30;99.90
37274;DHT22;23161;51.250;5.554;2022-11-13T00:23:18;6.30;99.90
37274;DHT22;23161;51.250;5.554;2022-11-13T00:26:07;6.20;99.90
37274;DHT22;23161;51.250;5.554;2022-11-13T00:28:54;6.20;99.90
37274;DHT22;23161;51.250;5.554;2022-11-13T00:31:39;6.20;99.90
37274;DHT22;23161;51.250;5.554;2022-11-13T00:34:23;6.20;99.90
37274;DHT22;23161;51.250;5.554;2022-11-13T00:37:08;6.20;99.90
37274;DHT22;23161;51.250;5.554;2022-11-13T00:39:52;6.10;99.90
37274;DHT22;23161;51.250;5.554;2022-11-13T00:42:36;6.10;99.90
37274;DHT22;23161;51.250;5.554;2022-11-13T00:45:21;6.10;99.90
37274;DHT22;23161;51.250;5.554;2022-11-13T00:48:05;6.00;99.90
37274;DHT22;23161;51.250;5.554;2022-11-13T00:50:50;6.00;99.90
37274;DHT22;23161;51.250;5.554;2022-11-13T00:53:35;6.00;99.90
37274;DHT22;23161;51.250;5.554;2022-11-13T00:56:19;5.80;99.90
37274;DHT22;23161;51.250;5.554;2022-11-13T00:59:04;5.70;99.90
37274;DHT22;23161;51.250;5.554;2022-11-13T01:01:48;5.60;99.90
37274;DHT22;23161;51.250;5.554;2022-11-13T01:04:33;5.60;99.90
37274;DHT22;23161;51.250;5.554;2022-11-13T01:07:18;5.50;99.90
37274;DHT22;23161;51.250;5.554;2022-11-13T01:10:06;5.50;99.90
37274;DHT22;23161;51.250;5.554;2022-11-13T01:12:51;5.40;99.90
37274;DHT22;23161;51.250;5.554;2022-11-13T01:15:38;5.30;99.90
37274;DHT22;23161;51.250;5.554;2022-11-13T01:18:23;5.40;99.90
37274;DHT22;23161;51.250;5.554;2022-11-13T01:21:12;5.30;99.90
37274;DHT22;23161;51.250;5.554;2022-11-13T01:23:57;5.20;99.90
37274;DHT22;23161;51.250;5.554;2022-11-13T01:26:41;5.20;99.90
37274;DHT22;23161;51.250;5.554;2022-11-13T01:29:25;5.10;99.90
37274;DHT22;23161;51.250;5.554;2022-11-13T01:32:10;5.10;99.90
37274;DHT22;23161;51.250;5.554;2022-11-13T01:34:55;5.10;99.90
37274;DHT22;23161;51.250;5.554;2022-11-13T01:37:40;5.00;99.90
37274;DHT22;23161;51.250;5.554;2022-11-13T01:40:24;5.00;99.90
37274;DHT22;23161;51.250;5.554;2022-11-13T01:43:32;5.00;99.90
37274;DHT22;23161;51.250;5.554;2022-11-13T01:51:58;4.90;99.90
37274;DHT22;23161;51.250;5.554;2022-11-13T01:54:46;4.80;99.90
37274;DHT22;23161;51.250;5.554;2022-11-13T01:57:31;4.70;99.90
37274;DHT22;23161;51.250;5.554;2022-11-13T02:00:16;4.70;99.90
37274;DHT22;23161;51.250;5.554;2022-11-13T02:03:01;4.70;99.90
37274;DHT22;23161;51.250;5.554;2022-11-13T02:05:45;4.60;99.90
37274;DHT22;23161;51.250;5.554;2022-11-13T02:08:30;4.60;99.90
37274;DHT22;23161;51.250;5.554;2022-11-13T02:11:14;4.50;99.90
37274;DHT22;23161;51.250;5.554;2022-11-13T02:13:59;4.60;99.90
37274;DHT22;23161;51.250;5.554;2022-11-13T02:16:47;4.50;99.90
37274;DHT22;23161;51.250;5.554;2022-11-13T02:19:35;4.50;99.90
37274;DHT22;23161;51.250;5.554;2022-11-13T02:22:51;4.50;99.90
37274;DHT22;23161;51.250;5.554;2022-11-13T02:25:37;4.50;99.90
37274;DHT22;23161;51.250;5.554;2022-11-13T02:28:21;4.50;99.90
37274;DHT22;23161;51.250;5.554;2022-11-13T02:31:10;4.40;99.90
37274;DHT22;23161;51.250;5.554;2022-11-13T02:33:55;4.50;99.90
37274;DHT22;23161;51.250;5.554;2022-11-13T02:36:40;4.40;99.90
37274;DHT22;23161;51.250;5.554;2022-11-13T02:39:24;4.30;99.90
37274;DHT22;23161;51.250;5.554;2022-11-13T02:42:08;4.30;99.90
37274;DHT22;23161;51.250;5.554;2022-11-13T02:44:53;4.40;99.90
37274;DHT22;23161;51.250;5.554;2022-11-13T02:47:37;4.40;99.90
37274;DHT22;23161;51.250;5.554;2022-11-13T02:50:21;4.50;99.90
37274;DHT22;23161;51.250;5.554;2022-11-13T02:53:06;4.60;99.90
37274;DHT22;23161;51.250;5.554;2022-11-13T02:55:50;4.60;99.90
37274;DHT22;23161;51.250;5.554;2022-11-13T02:58:34;4.60;99.90
37274;DHT22;23161;51.250;5.554;2022-11-13T03:01:19;4.70;99.90
37274;DHT22;23161;51.250;5.554;2022-11-13T03:04:03;4.90;99.90
37274;DHT22;23161;51.250;5.554;2022-11-13T03:06:47;4.90;99.90
37274;DHT22;23161;51.250;5.554;2022-11-13T03:09:31;4.80;99.90
37274;DHT22;23161;51.250;5.554;2022-11-13T03:12:16;4.80;99.90
37274;DHT22;23161;51.250;5.554;2022-11-13T03:15:00;4.90;99.90
37274;DHT22;23161;51.250;5.554;2022-11-13T03:17:44;5.00;99.90
37274;DHT22;23161;51.250;5.554;2022-11-13T03:20:28;5.00;99.90
37274;DHT22;23161;51.250;5.554;2022-11-13T03:23:12;5.00;99.90
37274;DHT22;23161;51.250;5.554;2022-11-13T03:26:03;4.90;99.90
37274;DHT22;23161;51.250;5.554;2022-11-13T03:28:48;5.00;99.90
37274;DHT22;23161;51.250;5.554;2022-11-13T03:31:33;5.00;99.90
37274;DHT22;23161;51.250;5.554;2022-11-13T03:34:17;5.00;99.90
37274;DHT22;23161;51.250;5.554;2022-11-13T03:37:01;5.00;99.90
37274;DHT22;23161;51.250;5.554;2022-11-13T03:39:45;5.00;99.90
37274;DHT22;23161;51.250;5.554;2022-11-13T03:42:30;5.00;99.90
37274;DHT22;23161;51.250;5.554;2022-11-13T03:45:14;5.00;99.90
37274;DHT22;23161;51.250;5.554;2022-11-13T03:47:58;5.00;99.90
37274;DHT22;23161;51.250;5.554;2022-11-13T03:50:48;4.90;99.90
37274;DHT22;23161;51.250;5.554;2022-11-13T03:53:32;4.90;99.90
37274;DHT22;23161;51.250;5.554;2022-11-13T03:56:16;4.80;99.90
37274;DHT22;23161;51.250;5.554;2022-11-13T03:59:01;4.70;99.90
37274;DHT22;23161;51.250;5.554;2022-11-13T04:01:45;4.70;99.90
37274;DHT22;23161;51.250;5.554;2022-11-13T04:04:29;4.70;99.90
37274;DHT22;23161;51.250;5.554;2022-11-13T04:07:14;4.70;99.90
37274;DHT22;23161;51.250;5.554;2022-11-13T04:09:58;4.70;99.90
37274;DHT22;23161;51.250;5.554;2022-11-13T04:12:43;4.80;99.90
37274;DHT22;23161;51.250;5.554;2022-11-13T04:15:27;4.70;99.90
37274;DHT22;23161;51.250;5.554;2022-11-13T04:18:12;4.70;99.90
37274;DHT22;23161;51.250;5.554;2022-11-13T04:21:00;4.60;99.90
37274;DHT22;23161;51.250;5.554;2022-11-13T04:23:45;4.40;99.90
37274;DHT22;23161;51.250;5.554;2022-11-13T04:26:30;4.30;99.90
37274;DHT22;23161;51.250;5.554;2022-11-13T04:29:14;4.20;99.90
37274;DHT22;23161;51.250;5.554;2022-11-13T04:31:58;4.10;99.90
37274;DHT22;23161;51.250;5.554;2022-11-13T04:34:42;4.00;99.90
37274;DHT22;23161;51.250;5.554;2022-11-13T04:37:26;4.00;99.90
37274;DHT22;23161;51.250;5.554;2022-11-13T04:40:11;3.90;99.90
37274;DHT22;23161;51.250;5.554;2022-11-13T04:42:56;3.80;99.90
37274;DHT22;23161;51.250;5.554;2022-11-13T04:45:40;3.80;99.90
37274;DHT22;23161;51.250;5.554;2022-11-13T04:48:24;3.80;99.90
37274;DHT22;23161;51.250;5.554;2022-11-13T04:51:08;3.80;99.90
37274;DHT22;23161;51.250;5.554;2022-11-13T04:53:53;3.80;99.90
37274;DHT22;23161;51.250;5.554;2022-11-13T04:56:38;3.80;99.90
37274;DHT22;23161;51.250;5.554;2022-11-13T04:59:22;3.70;99.90
37274;DHT22;23161;51.250;5.554;2022-11-13T05:02:07;3.70;99.90
37274;DHT22;23161;51.250;5.554;2022-11-13T05:04:52;3.60;99.90
37274;DHT22;23161;51.250;5.554;2022-11-13T05:07:36;3.60;99.90
37274;DHT22;23161;51.250;5.554;2022-11-13T05:10:20;3.50;99.90
37274;DHT22;23161;51.250;5.554;2022-11-13T05:13:05;3.50;99.90
37274;DHT22;23161;51.250;5.554;2022-11-13T05:15:49;3.40;99.90
37274;DHT22;23161;51.250;5.554;2022-11-13T05:18:35;3.40;99.90
37274;DHT22;23161;51.250;5.554;2022-11-13T05:21:20;3.30;99.90
37274;DHT22;23161;51.250;5.554;2022-11-13T05:24:04;3.30;99.90
37274;DHT22;23161;51.250;5.554;2022-11-13T05:26:49;3.30;99.90
37274;DHT22;23161;51.250;5.554;2022-11-13T05:29:33;3.20;99.90
37274;DHT22;23161;51.250;5.554;2022-11-13T05:32:18;3.10;99.90
37274;DHT22;23161;51.250;5.554;2022-11-13T05:35:03;3.10;99.90
37274;DHT22;23161;51.250;5.554;2022-11-13T05:37:47;3.10;99.90
37274;DHT22;23161;51.250;5.554;2022-11-13T05:40:31;3.00;99.90
37274;DHT22;23161;51.250;5.554;2022-11-13T05:43:15;3.00;99.90
37274;DHT22;23161;51.250;5.554;2022-11-13T05:46:06;3.10;99.90
37274;DHT22;23161;51.250;5.554;2022-11-13T05:48:59;3.10;99.90
37274;DHT22;23161;51.250;5.554;2022-11-13T05:51:43;3.20;99.90
37274;DHT22;23161;51.250;5.554;2022-11-13T05:54:27;3.20;99.90
37274;DHT22;23161;51.250;5.554;2022-11-13T05:57:11;3.10;99.90
37274;DHT22;23161;51.250;5.554;2022-11-13T05:59:56;3.10;99.90
37274;DHT22;23161;51.250;5.554;2022-11-13T06:02:40;3.00;99.90
37274;DHT22;23161;51.250;5.554;2022-11-13T06:05:25;3.00;99.90
37274;DHT22;23161;51.250;5.554;2022-11-13T06:08:09;2.90;99.90
37274;DHT22;23161;51.250;5.554;2022-11-13T06:10:58;2.90;99.90
37274;DHT22;23161;51.250;5.554;2022-11-13T06:13:44;2.90;99.90
37274;DHT22;23161;51.250;5.554;2022-11-13T06:16:34;2.90;99.90
37274;DHT22;23161;51.250;5.554;2022-11-13T06:19:18;2.80;99.90
37274;DHT22;23161;51.250;5.554;2022-11-13T06:22:02;2.80;99.90
37274;DHT22;23161;51.250;5.554;2022-11-13T06:24:46;2.70;99.90
37274;DHT22;23161;51.250;5.554;2022-11-13T06:27:31;2.70;99.90
37274;DHT22;23161;51.250;5.554;2022-11-13T06:30:15;2.60;99.90
37274;DHT22;23161;51.250;5.554;2022-11-13T06:33:00;2.60;99.90
37274;DHT22;23161;51.250;5.554;2022-11-13T06:35:45;2.60;99.90
37274;DHT22;23161;51.250;5.554;2022-11-13T06:38:31;2.60;99.90
37274;DHT22;23161;51.250;5.554;2022-11-13T06:41:19;2.70;99.90
37274;DHT22;23161;51.250;5.554;2022-11-13T06:44:04;2.60;99.90
37274;DHT22;23161;51.250;5.554;2022-11-13T06:46:48;2.60;99.90
37274;DHT22;23161;51.250;5.554;2022-11-13T06:49:33;2.60;99.90
37274;DHT22;23161;51.250;5.554;2022-11-13T06:52:18;2.50;99.90
37274;DHT22;23161;51.250;5.554;2022-11-13T06:55:03;2.50;99.90
37274;DHT22;23161;51.250;5.554;2022-11-13T06:57:47;2.50;99.90
37274;DHT22;23161;51.250;5.554;2022-11-13T07:00:32;2.50;99.90
37274;DHT22;23161;51.250;5.554;2022-11-13T07:03:25;2.50;99.90
37274;DHT22;23161;51.250;5.554;2022-11-13T07:06:12;2.60;99.90
37274;DHT22;23161;51.250;5.554;2022-11-13T07:08:57;3.20;99.90
37274;DHT22;23161;51.250;5.554;2022-11-13T07:11:42;3.40;99.90
37274;DHT22;23161;51.250;5.554;2022-11-13T07:14:26;3.40;99.90
37274;DHT22;23161;51.250;5.554;2022-11-13T07:17:11;3.20;99.90
37274;DHT22;23161;51.250;5.554;2022-11-13T07:19:55;3.20;99.90
37274;DHT22;23161;51.250;5.554;2022-11-13T07:22:39;3.10;99.90
37274;DHT22;23161;51.250;5.554;2022-11-13T07:25:23;3.00;99.90
37274;DHT22;23161;51.250;5.554;2022-11-13T07:28:08;3.00;99.90
37274;DHT22;23161;51.250;5.554;2022-11-13T07:30:56;3.20;99.90
37274;DHT22;23161;51.250;5.554;2022-11-13T07:33:41;3.30;99.90
37274;DHT22;23161;51.250;5.554;2022-11-13T07:36:25;3.40;99.90
37274;DHT22;23161;51.250;5.554;2022-11-13T07:39:09;3.70;99.90
37274;DHT22;23161;51.250;5.554;2022-11-13T07:41:54;4.10;99.90
37274;DHT22;23161;51.250;5.554;2022-11-13T07:44:38;4.60;99.90
37274;DHT22;23161;51.250;5.554;2022-11-13T07:47:23;5.00;99.90
37274;DHT22;23161;51.250;5.554;2022-11-13T07:50:07;5.10;99.90
37274;DHT22;23161;51.250;5.554;2022-11-13T07:52:57;5.30;99.90
37274;DHT22;23161;51.250;5.554;2022-11-13T07:55:41;5.90;99.90
37274;DHT22;23161;51.250;5.554;2022-11-13T07:58:25;7.40;99.90
37274;DHT22;23161;51.250;5.554;2022-11-13T08:01:10;9.80;99.90
37274;DHT22;23161;51.250;5.554;2022-11-13T08:03:54;12.10;99.90
37274;DHT22;23161;51.250;5.554;2022-11-13T08:06:38;13.80;99.90
37274;DHT22;23161;51.250;5.554;2022-11-13T08:09:22;15.20;99.90
37274;DHT22;23161;51.250;5.554;2022-11-13T08:12:07;16.50;99.90
37274;DHT22;23161;51.250;5.554;2022-11-13T08:14:52;18.20;99.90
37274;DHT22;23161;51.250;5.554;2022-11-13T08:17:36;19.60;99.90
37274;DHT22;23161;51.250;5.554;2022-11-13T08:20:20;20.50;99.90
37274;DHT22;23161;51.250;5.554;2022-11-13T08:23:05;21.30;99.90
37274;DHT22;23161;51.250;5.554;2022-11-13T08:25:49;22.20;96.70
37274;DHT22;23161;51.250;5.554;2022-11-13T08:28:34;22.70;96.60
37274;DHT22;23161;51.250;5.554;2022-11-13T08:31:18;22.70;95.40
37274;DHT22;23161;51.250;5.554;2022-11-13T08:34:03;23.00;96.70
37274;DHT22;23161;51.250;5.554;2022-11-13T08:36:47;24.30;95.90
37274;DHT22;23161;51.250;5.554;2022-11-13T08:39:31;24.50;94.40
37274;DHT22;23161;51.250;5.554;2022-11-13T08:42:18;24.20;92.50
37274;DHT22;23161;51.250;5.554;2022-11-13T08:45:03;22.60;92.50
37274;DHT22;23161;51.250;5.554;2022-11-13T08:47:59;23.50;93.80
37274;DHT22;23161;51.250;5.554;2022-11-13T08:50:44;23.40;94.30
37274;DHT22;23161;51.250;5.554;2022-11-13T08:53:29;24.00;92.20
37274;DHT22;23161;51.250;5.554;2022-11-13T08:56:13;23.90;92.00
37274;DHT22;23161;51.250;5.554;2022-11-13T08:58:58;24.30;91.80
37274;DHT22;23161;51.250;5.554;2022-11-13T09:01:42;23.40;91.60
37274;DHT22;23161;51.250;5.554;2022-11-13T09:04:27;24.50;91.20
37274;DHT22;23161;51.250;5.554;2022-11-13T09:07:11;23.90;92.10
37274;DHT22;23161;51.250;5.554;2022-11-13T09:09:56;24.50;91.70
37274;DHT22;23161;51.250;5.554;2022-11-13T09:12:40;24.40;91.60
37274;DHT22;23161;51.250;5.554;2022-11-13T09:15:24;25.20;91.00
37274;DHT22;23161;51.250;5.554;2022-11-13T09:18:09;25.20;90.90
37274;DHT22;23161;51.250;5.554;2022-11-13T09:20:54;24.70;90.20
37274;DHT22;23161;51.250;5.554;2022-11-13T09:23:39;24.40;90.60
37274;DHT22;23161;51.250;5.554;2022-11-13T09:26:23;24.30;90.90
37274;DHT22;23161;51.250;5.554;2022-11-13T09:29:07;23.70;91.00
37274;DHT22;23161;51.250;5.554;2022-11-13T09:31:54;24.50;90.80
37274;DHT22;23161;51.250;5.554;2022-11-13T09:34:38;23.90;90.00
37274;DHT22;23161;51.250;5.554;2022-11-13T09:37:22;21.50;92.40
37274;DHT22;23161;51.250;5.554;2022-11-13T09:40:10;22.10;91.20
37274;DHT22;23161;51.250;5.554;2022-11-13T09:43:02;21.70;92.10
37274;DHT22;23161;51.250;5.554;2022-11-13T09:45:48;21.70;92.10
37274;DHT22;23161;51.250;5.554;2022-11-13T09:48:38;23.20;91.90
37274;DHT22;23161;51.250;5.554;2022-11-13T09:51:24;24.80;91.10
37274;DHT22;23161;51.250;5.554;2022-11-13T09:54:12;24.90;90.40
37274;DHT22;23161;51.250;5.554;2022-11-13T10:00:01;26.50;89.50
37274;DHT22;23161;51.250;5.554;2022-11-13T10:06:10;27.50;87.30
37274;DHT22;23161;51.250;5.554;2022-11-13T10:09:00;28.70;86.30
37274;DHT22;23161;51.250;5.554;2022-11-13T10:11:56;29.20;84.80
37274;DHT22;23161;51.250;5.554;2022-11-13T10:14:47;29.60;85.40
37274;DHT22;23161;51.250;5.554;2022-11-13T10:17:43;29.10;83.40
37274;DHT22;23161;51.250;5.554;2022-11-13T10:23:28;28.50;84.80
37274;DHT22;23161;51.250;5.554;2022-11-13T10:26:20;28.80;84.20
37274;DHT22;23161;51.250;5.554;2022-11-13T10:29:11;28.90;84.10
37274;DHT22;23161;51.250;5.554;2022-11-13T10:31:56;28.00;84.10
37274;DHT22;23161;51.250;5.554;2022-11-13T10:38:10;28.30;83.60
37274;DHT22;23161;51.250;5.554;2022-11-13T10:41:14;27.80;85.00
37274;DHT22;23161;51.250;5.554;2022-11-13T10:44:06;27.60;84.10
37274;DHT22;23161;51.250;5.554;2022-11-13T10:47:13;27.20;85.70
37274;DHT22;23161;51.250;5.554;2022-11-13T10:50:17;26.30;85.20
37274;DHT22;23161;51.250;5.554;2022-11-13T10:53:02;26.00;87.20
37274;DHT22;23161;51.250;5.554;2022-11-13T10:55:49;26.10;87.40
37274;DHT22;23161;51.250;5.554;2022-11-13T10:58:34;25.60;87.80
37274;DHT22;23161;51.250;5.554;2022-11-13T11:01:21;25.90;86.20
37274;DHT22;23161;51.250;5.554;2022-11-13T11:04:18;25.40;86.90
37274;DHT22;23161;51.250;5.554;2022-11-13T11:07:15;25.30;87.50
37274;DHT22;23161;51.250;5.554;2022-11-13T11:10:00;25.20;88.10
37274;DHT22;23161;51.250;5.554;2022-11-13T11:12:53;24.10;87.50
37274;DHT22;23161;51.250;5.554;2022-11-13T11:15:43;23.40;88.40
37274;DHT22;23161;51.250;5.554;2022-11-13T11:18:37;22.70;90.10
37274;DHT22;23161;51.250;5.554;2022-11-13T11:21:27;22.40;90.20
37274;DHT22;23161;51.250;5.554;2022-11-13T11:24:25;21.70;90.50
37274;DHT22;23161;51.250;5.554;2022-11-13T11:27:25;22.20;91.40
37274;DHT22;23161;51.250;5.554;2022-11-13T11:30:19;21.60;90.80
37274;DHT22;23161;51.250;5.554;2022-11-13T11:33:24;22.20;91.10
37274;DHT22;23161;51.250;5.554;2022-11-13T11:39:32;21.50;90.90
37274;DHT22;23161;51.250;5.554;2022-11-13T11:42:26;21.30;91.40
37274;DHT22;23161;51.250;5.554;2022-11-13T11:45:34;20.00;92.40
37274;DHT22;23161;51.250;5.554;2022-11-13T11:48:22;20.70;92.00
37274;DHT22;23161;51.250;5.554;2022-11-13T11:57:06;19.90;92.40
37274;DHT22;23161;51.250;5.554;2022-11-13T12:00:04;19.50;92.60
37274;DHT22;23161;51.250;5.554;2022-11-13T12:03:14;18.80;93.70
37274;DHT22;23161;51.250;5.554;2022-11-13T12:09:32;19.10;93.60
37274;DHT22;23161;51.250;5.554;2022-11-13T12:27:10;19.70;92.30
37274;DHT22;23161;51.250;5.554;2022-11-13T12:36:09;19.90;91.70
37274;DHT22;23161;51.250;5.554;2022-11-13T12:42:19;19.40;91.40
37274;DHT22;23161;51.250;5.554;2022-11-13T12:51:11;18.70;92.90
37274;DHT22;23161;51.250;5.554;2022-11-13T12:54:00;18.70;92.40
37274;DHT22;23161;51.250;5.554;2022-11-13T12:56:45;18.30;93.30
37274;DHT22;23161;51.250;5.554;2022-11-13T12:59:35;18.00;93.70
37274;DHT22;23161;51.250;5.554;2022-11-13T13:05:36;18.10;94.30
37274;DHT22;23161;51.250;5.554;2022-11-13T13:11:30;17.70;93.60
37274;DHT22;23161;51.250;5.554;2022-11-13T13:17:21;17.80;94.30
37274;DHT22;23161;51.250;5.554;2022-11-13T13:22:59;18.00;94.00
37274;DHT22;23161;51.250;5.554;2022-11-13T13:25:44;17.80;93.90
37274;DHT22;23161;51.250;5.554;2022-11-13T13:28:30;17.70;94.30
37274;DHT22;23161;51.250;5.554;2022-11-13T13:38:01;17.20;94.00
37274;DHT22;23161;51.250;5.554;2022-11-13T13:41:04;17.10;93.60
37274;DHT22;23161;51.250;5.554;2022-11-13T13:46:58;16.90;94.30
37274;DHT22;23161;51.250;5.554;2022-11-13T13:49:43;16.80;94.00
37274;DHT22;23161;51.250;5.554;2022-11-13T13:52:30;16.60;94.50
37274;DHT22;23161;51.250;5.554;2022-11-13T13:55:30;16.60;94.60
37274;DHT22;23161;51.250;5.554;2022-11-13T13:58:18;16.50;94.00
37274;DHT22;23161;51.250;5.554;2022-11-13T14:01:05;16.50;94.20
37274;DHT22;23161;51.250;5.554;2022-11-13T14:04:11;16.40;94.60
37274;DHT22;23161;51.250;5.554;2022-11-13T14:06:57;16.40;94.90
37274;DHT22;23161;51.250;5.554;2022-11-13T14:09:42;16.40;95.00
37274;DHT22;23161;51.250;5.554;2022-11-13T14:12:27;16.30;94.90
37274;DHT22;23161;51.250;5.554;2022-11-13T14:18:14;16.20;94.90
37274;DHT22;23161;51.250;5.554;2022-11-13T14:21:00;16.20;94.80
37274;DHT22;23161;51.250;5.554;2022-11-13T14:23:48;16.20;95.20
37274;DHT22;23161;51.250;5.554;2022-11-13T14:26:34;16.10;95.30
37274;DHT22;23161;51.250;5.554;2022-11-13T14:32:27;16.10;95.20
37274;DHT22;23161;51.250;5.554;2022-11-13T14:35:21;16.00;95.60
37274;DHT22;23161;51.250;5.554;2022-11-13T14:38:18;15.90;98.30
37274;DHT22;23161;51.250;5.554;2022-11-13T14:41:04;15.80;95.90
37274;DHT22;23161;51.250;5.554;2022-11-13T14:43:50;15.80;96.40
37274;DHT22;23161;51.250;5.554;2022-11-13T14:46:37;15.70;96.60
37274;DHT22;23161;51.250;5.554;2022-11-13T14:49:28;15.60;97.00
37274;DHT22;23161;51.250;5.554;2022-11-13T14:52:27;15.40;97.70
37274;DHT22;23161;51.250;5.554;2022-11-13T14:55:27;15.40;96.90
37274;DHT22;23161;51.250;5.554;2022-11-13T14:58:12;15.30;97.30
37274;DHT22;23161;51.250;5.554;2022-11-13T15:01:03;15.20;97.70
37274;DHT22;23161;51.250;5.554;2022-11-13T15:03:54;15.20;97.60
37274;DHT22;23161;51.250;5.554;2022-11-13T15:06:39;15.20;97.40
37274;DHT22;23161;51.250;5.554;2022-11-13T15:09:24;15.00;97.70
37274;DHT22;23161;51.250;5.554;2022-11-13T15:12:11;14.90;98.00
37274;DHT22;23161;51.250;5.554;2022-11-13T15:14:56;14.70;98.50
37274;DHT22;23161;51.250;5.554;2022-11-13T15:17:40;14.60;98.60
37274;DHT22;23161;51.250;5.554;2022-11-13T15:20:28;14.40;98.90
37274;DHT22;23161;51.250;5.554;2022-11-13T15:23:14;14.30;98.90
37274;DHT22;23161;51.250;5.554;2022-11-13T15:25:59;14.20;99.20
37274;DHT22;23161;51.250;5.554;2022-11-13T15:28:44;14.00;99.40
37274;DHT22;23161;51.250;5.554;2022-11-13T15:31:34;14.00;99.40
37274;DHT22;23161;51.250;5.554;2022-11-13T15:34:19;13.80;99.40
37274;DHT22;23161;51.250;5.554;2022-11-13T15:37:16;13.80;99.70
37274;DHT22;23161;51.250;5.554;2022-11-13T15:40:01;13.60;99.90
37274;DHT22;23161;51.250;5.554;2022-11-13T15:42:45;13.70;99.90
37274;DHT22;23161;51.250;5.554;2022-11-13T15:45:30;13.60;99.80
37274;DHT22;23161;51.250;5.554;2022-11-13T15:48:14;13.50;99.80
37274;DHT22;23161;51.250;5.554;2022-11-13T15:50:59;13.40;99.90
37274;DHT22;23161;51.250;5.554;2022-11-13T15:53:49;13.30;99.80
37274;DHT22;23161;51.250;5.554;2022-11-13T15:56:35;13.10;99.90
37274;DHT22;23161;51.250;5.554;2022-11-13T15:59:19;13.00;99.90
37274;DHT22;23161;51.250;5.554;2022-11-13T16:02:03;12.80;99.90
37274;DHT22;23161;51.250;5.554;2022-11-13T16:04:47;12.80;99.90
37274;DHT22;23161;51.250;5.554;2022-11-13T16:07:32;12.70;99.90
37274;DHT22;23161;51.250;5.554;2022-11-13T16:10:16;12.40;99.90
37274;DHT22;23161;51.250;5.554;2022-11-13T16:13:01;12.20;99.90
37274;DHT22;23161;51.250;5.554;2022-11-13T16:15:46;12.10;99.90
37274;DHT22;23161;51.250;5.554;2022-11-13T16:18:32;12.10;99.90
37274;DHT22;23161;51.250;5.554;2022-11-13T16:21:18;12.10;99.90
37274;DHT22;23161;51.250;5.554;2022-11-13T16:24:03;11.90;99.90
37274;DHT22;23161;51.250;5.554;2022-11-13T16:26:53;11.70;99.90
37274;DHT22;23161;51.250;5.554;2022-11-13T16:29:38;11.40;99.90
37274;DHT22;23161;51.250;5.554;2022-11-13T16:32:22;11.20;99.90
37274;DHT22;23161;51.250;5.554;2022-11-13T16:35:11;11.00;99.90
37274;DHT22;23161;51.250;5.554;2022-11-13T16:37:56;10.80;99.90
37274;DHT22;23161;51.250;5.554;2022-11-13T16:40:41;10.70;99.90
37274;DHT22;23161;51.250;5.554;2022-11-13T16:43:26;10.60;99.90
37274;DHT22;23161;51.250;5.554;2022-11-13T16:46:27;10.50;99.90
37274;DHT22;23161;51.250;5.554;2022-11-13T16:49:13;10.50;99.90
37274;DHT22;23161;51.250;5.554;2022-11-13T16:52:03;10.40;99.90
37274;DHT22;23161;51.250;5.554;2022-11-13T16:54:49;10.30;99.90
37274;DHT22;23161;51.250;5.554;2022-11-13T16:57:34;10.30;99.90
37274;DHT22;23161;51.250;5.554;2022-11-13T17:00:19;10.30;99.90
37274;DHT22;23161;51.250;5.554;2022-11-13T17:03:04;10.00;99.90
37274;DHT22;23161;51.250;5.554;2022-11-13T17:05:51;9.80;99.90
37274;DHT22;23161;51.250;5.554;2022-11-13T17:08:36;9.60;99.90
37274;DHT22;23161;51.250;5.554;2022-11-13T17:11:25;9.50;99.90
37274;DHT22;23161;51.250;5.554;2022-11-13T17:14:10;9.40;99.90
37274;DHT22;23161;51.250;5.554;2022-11-13T17:16:54;9.30;99.90
37274;DHT22;23161;51.250;5.554;2022-11-13T17:19:39;9.40;99.90
37274;DHT22;23161;51.250;5.554;2022-11-13T17:22:27;9.40;99.90
37274;DHT22;23161;51.250;5.554;2022-11-13T17:25:11;9.40;99.90
37274;DHT22;23161;51.250;5.554;2022-11-13T17:27:55;9.50;99.90
37274;DHT22;23161;51.250;5.554;2022-11-13T17:30:40;9.40;99.90
37274;DHT22;23161;51.250;5.554;2022-11-13T17:33:25;9.20;99.90
37274;DHT22;23161;51.250;5.554;2022-11-13T17:36:10;9.10;99.90
37274;DHT22;23161;51.250;5.554;2022-11-13T17:38:54;8.90;99.90
37274;DHT22;23161;51.250;5.554;2022-11-13T17:41:39;8.90;99.90
37274;DHT22;23161;51.250;5.554;2022-11-13T17:44:24;8.70;99.90
37274;DHT22;23161;51.250;5.554;2022-11-13T17:47:08;8.70;99.90
37274;DHT22;23161;51.250;5.554;2022-11-13T17:49:53;8.50;99.90
37274;DHT22;23161;51.250;5.554;2022-11-13T17:52:39;8.40;99.90
37274;DHT22;23161;51.250;5.554;2022-11-13T17:55:24;8.40;99.90
37274;DHT22;23161;51.250;5.554;2022-11-13T17:58:08;8.20;99.90
37274;DHT22;23161;51.250;5.554;2022-11-13T18:01:01;8.10;99.90
37274;DHT22;23161;51.250;5.554;2022-11-13T18:03:46;8.00;99.90
37274;DHT22;23161;51.250;5.554;2022-11-13T18:06:31;7.90;99.90
37274;DHT22;23161;51.250;5.554;2022-11-13T18:09:16;7.90;99.90
37274;DHT22;23161;51.250;5.554;2022-11-13T18:12:02;8.00;99.90
37274;DHT22;23161;51.250;5.554;2022-11-13T18:14:46;7.90;99.90
37274;DHT22;23161;51.250;5.554;2022-11-13T18:17:35;7.90;99.90
37274;DHT22;23161;51.250;5.554;2022-11-13T18:20:19;7.90;99.90
37274;DHT22;23161;51.250;5.554;2022-11-13T18:23:04;7.80;99.90
37274;DHT22;23161;51.250;5.554;2022-11-13T18:25:49;7.70;99.90
37274;DHT22;23161;51.250;5.554;2022-11-13T18:28:33;7.60;99.90
37274;DHT22;23161;51.250;5.554;2022-11-13T18:31:18;7.60;99.90
37274;DHT22;23161;51.250;5.554;2022-11-13T18:34:04;7.60;99.90
37274;DHT22;23161;51.250;5.554;2022-11-13T18:36:49;7.50;99.90
37274;DHT22;23161;51.250;5.554;2022-11-13T18:39:34;7.50;99.90
37274;DHT22;23161;51.250;5.554;2022-11-13T18:42:18;7.50;99.90
37274;DHT22;23161;51.250;5.554;2022-11-13T18:45:03;7.40;99.90
37274;DHT22;23161;51.250;5.554;2022-11-13T18:47:47;7.40;99.90
37274;DHT22;23161;51.250;5.554;2022-11-13T18:50:32;7.30;99.90
37274;DHT22;23161;51.250;5.554;2022-11-13T18:53:17;7.20;99.90
37274;DHT22;23161;51.250;5.554;2022-11-13T18:56:04;7.20;99.90
37274;DHT22;23161;51.250;5.554;2022-11-13T18:58:50;7.20;99.90
37274;DHT22;23161;51.250;5.554;2022-11-13T19:01:35;7.20;99.90
37274;DHT22;23161;51.250;5.554;2022-11-13T19:04:21;7.20;99.90
37274;DHT22;23161;51.250;5.554;2022-11-13T19:07:05;7.00;99.90
37274;DHT22;23161;51.250;5.554;2022-11-13T19:09:51;6.80;99.90
37274;DHT22;23161;51.250;5.554;2022-11-13T19:12:36;6.70;99.90